Time;durP1;ratioP1;P1;durP2;ratioP2;P2;SDS_P1;SDS_P2;PMS_P1;PMS_P2;Temp;Humidity;BMP_temperature;BMP_pressure;BME280_temperature;BME280_humidity;BME280_pressure;Samples;Min_cycle;Max_cycle;Signal;HPM_P1;HPM_P2
2022/10/20 00:00:40;;;;;;;;;;;;;;;6.19;74.22;99199.34;5086645;28;20426;-65
2022/10/20 00:03:06;;;;;;;;;;;;;;;6.20;74.20;99205.59;5067996;28;19924;-65
2022/10/20 00:05:32;;;;;;;;;;;;;;;6.20;74.24;99211.00;5086953;28;19943;-65
2022/10/20 00:07:57;;;;;;;;;;;;;;;6.23;74.02;99213.19;5086940;28;20425;-65
2022/10/20 00:10:23;;;;;;;;;;;;;;;6.24;73.89;99215.66;5089927;28;20333;-66
2022/10/20 00:12:50;;;;;;;;;;;;;;;6.27;74.04;99213.50;5086005;28;19923;-65
2022/10/20 00:15:16;;;;;;;;;;;;;;;6.29;73.99;99217.59;5087672;28;19924;-65
2022/10/20 00:17:43;;;;;;;;;;;;;;;6.31;73.75;99220.03;5088949;28;19989;-65
2022/10/20 00:20:09;;;;;;;;;;;;;;;6.33;73.48;99221.44;5092088;28;19924;-64
2022/10/20 00:22:35;;;;;;;;;;;;;;;6.30;73.38;99231.97;5089130;28;20333;-64
2022/10/20 00:25:01;;;;;;;;;;;;;;;6.30;73.25;99229.28;5088147;28;19924;-64
2022/10/20 00:27:27;;;;;;;;;;;;;;;6.04;73.05;99193.81;5090873;28;20022;-65
2022/10/20 00:29:54;;;;;;;;;;;;;;;6.30;73.00;99223.84;5088231;28;19936;-65
2022/10/20 00:32:20;;;;;;;;;;;;;;;6.29;72.99;99236.63;5087153;28;19924;-64
2022/10/20 00:34:45;;;;;;;;;;;;;;;6.29;73.02;99239.31;5090730;28;19931;-63
2022/10/20 00:37:11;;;;;;;;;;;;;;;6.26;72.93;99239.84;5091062;28;19930;-65
2022/10/20 00:39:37;;;;;;;;;;;;;;;6.25;72.83;99246.38;5088003;28;19928;-66
2022/10/20 00:42:03;;;;;;;;;;;;;;;6.25;72.88;99254.50;5089510;28;20026;-66
2022/10/20 00:44:46;;;;;;;;;;;;;;;6.24;72.86;99259.09;5089061;28;20308;-65
2022/10/20 00:47:16;;;;;;;;;;;;;;;6.23;72.78;99257.47;5052969;28;20473;-65
2022/10/20 00:49:42;;;;;;;;;;;;;;;6.24;72.96;99266.41;5086003;28;19961;-65
2022/10/20 00:52:08;;;;;;;;;;;;;;;6.24;73.10;99263.69;5084992;28;19959;-64
2022/10/20 00:54:34;;;;;;;;;;;;;;;6.24;73.32;99271.84;5089953;28;20011;-64
2022/10/20 00:57:00;;;;;;;;;;;;;;;6.23;73.45;99267.50;5086727;28;20038;-65
2022/10/20 00:59:28;;;;;;;;;;;;;;;6.21;73.53;99273.22;5083145;28;19924;-66
2022/10/20 01:01:55;;;;;;;;;;;;;;;6.21;73.76;99270.50;5084767;28;20148;-64
2022/10/20 01:04:22;;;;;;;;;;;;;;;6.21;73.91;99275.91;5083892;28;20431;-64
2022/10/20 01:06:48;;;;;;;;;;;;;;;6.21;74.04;99277.81;5089117;28;19924;-65
2022/10/20 01:09:13;;;;;;;;;;;;;;;6.16;74.36;99281.28;5090851;28;19930;-65
2022/10/20 01:11:44;;;;;;;;;;;;;;;6.15;74.67;99278.84;5088188;28;19977;-65
2022/10/20 01:14:20;;;;;;;;;;;;;;;6.16;74.79;99283.19;5088500;28;19955;-65
2022/10/20 01:16:50;;;;;;;;;;;;;;;6.14;74.98;99285.34;5088767;28;19973;-64
2022/10/20 01:19:29;;;;;;;;;;;;;;;6.13;75.14;99283.72;5085446;28;20390;-65
2022/10/20 01:21:58;;;;;;;;;;;;;;;6.12;75.51;99284.81;5086900;28;20405;-65
2022/10/20 01:24:39;;;;;;;;;;;;;;;6.04;75.86;99297.75;5086006;28;20249;-67
2022/10/20 01:27:23;;;;;;;;;;;;;;;6.01;75.92;99298.25;5087307;28;20394;-63
2022/10/20 01:29:52;;;;;;;;;;;;;;;6.01;76.21;99302.81;5084811;28;19920;-65
2022/10/20 01:32:20;;;;;;;;;;;;;;;5.99;76.47;99299.56;5084303;28;19971;-65
2022/10/20 01:34:50;;;;;;;;;;;;;;;5.96;76.55;99306.34;5089307;28;20014;-66
2022/10/20 01:37:19;;;;;;;;;;;;;;;5.94;76.65;99305.78;5087713;28;19923;-65
2022/10/20 01:39:48;;;;;;;;;;;;;;;5.93;76.74;99309.53;5083264;28;20018;-65
2022/10/20 01:42:18;;;;;;;;;;;;;;;5.91;76.82;99309.81;5082422;28;20448;-65
2022/10/20 01:44:45;;;;;;;;;;;;;;;5.91;77.03;99317.13;5085339;28;19923;-66
2022/10/20 01:47:13;;;;;;;;;;;;;;;5.90;76.79;99310.88;5087470;28;19969;-64
2022/10/20 01:49:41;;;;;;;;;;;;;;;5.92;77.10;99314.16;5087378;28;19924;-64
2022/10/20 01:52:08;;;;;;;;;;;;;;;5.95;76.76;99320.97;5087219;28;19923;-65
2022/10/20 01:54:34;;;;;;;;;;;;;;;5.95;76.78;99323.69;5087303;28;20360;-64
2022/10/20 01:57:07;;;;;;;;;;;;;;;5.93;76.56;99329.38;5087753;28;19931;-65
2022/10/20 01:59:39;;;;;;;;;;;;;;;5.90;76.50;99335.31;5085406;28;19997;-65
2022/10/20 02:02:14;;;;;;;;;;;;;;;5.91;76.51;99341.53;5088291;28;19977;-65
2022/10/20 02:04:46;;;;;;;;;;;;;;;5.91;76.39;99345.09;5086599;28;20000;-65
2022/10/20 02:07:16;;;;;;;;;;;;;;;5.90;76.21;99340.75;5088487;28;19924;-65
2022/10/20 02:09:44;;;;;;;;;;;;;;;5.88;76.20;99347.47;5083830;28;20023;-65
2022/10/20 02:12:13;;;;;;;;;;;;;;;5.88;76.19;99350.19;5089029;28;19924;-65
2022/10/20 02:14:39;;;;;;;;;;;;;;;5.84;76.29;99349.88;5085759;28;20377;-65
2022/10/20 02:17:07;;;;;;;;;;;;;;;5.75;76.35;99352.22;5087810;28;20313;-65
2022/10/20 02:19:33;;;;;;;;;;;;;;;5.66;76.68;99361.91;5083955;28;20107;-67
2022/10/20 02:22:01;;;;;;;;;;;;;;;5.63;76.79;99362.41;5086093;28;19970;-63
2022/10/20 02:24:29;;;;;;;;;;;;;;;5.65;76.63;99366.50;5083225;28;20385;-65
2022/10/20 02:26:57;;;;;;;;;;;;;;;5.69;76.48;99364.09;5084848;28;19969;-65
2022/10/20 02:29:24;;;;;;;;;;;;;;;5.74;76.37;99366.88;5085829;28;19954;-65
2022/10/20 02:31:50;;;;;;;;;;;;;;;5.80;76.27;99370.47;5086681;28;19928;-65
2022/10/20 02:34:16;;;;;;;;;;;;;;;5.87;76.06;99367.56;5084154;28;19978;-65
2022/10/20 02:36:42;;;;;;;;;;;;;;;5.87;75.75;99371.09;5088089;28;20284;-65
2022/10/20 02:39:09;;;;;;;;;;;;;;;5.89;75.77;99368.13;5085366;28;20360;-64
2022/10/20 02:41:35;;;;;;;;;;;;;;;5.87;75.78;99373.81;5098310;28;19923;-64
2022/10/20 02:44:01;;;;;;;;;;;;;;;5.91;75.60;99374.09;5106392;28;19930;-63
2022/10/20 02:46:26;;;;;;;;;;;;;;;5.92;75.53;99386.59;5101652;28;20042;-65
2022/10/20 02:48:52;;;;;;;;;;;;;;;5.93;75.55;99385.53;5104249;28;19931;-64
2022/10/20 02:51:18;;;;;;;;;;;;;;;5.94;75.34;99388.00;5103384;28;19930;-64
2022/10/20 02:53:44;;;;;;;;;;;;;;;5.94;75.40;99388.00;5106932;28;20471;-65
2022/10/20 02:56:11;;;;;;;;;;;;;;;5.93;75.35;99388.22;5105811;28;19951;-65
2022/10/20 02:58:37;;;;;;;;;;;;;;;5.91;75.14;99398.53;5104463;28;20425;-64
2022/10/20 03:01:03;;;;;;;;;;;;;;;5.92;74.99;99400.16;5088168;28;19963;-63
2022/10/20 03:03:28;;;;;;;;;;;;;;;5.91;74.93;99395.81;5088067;28;20043;-65
2022/10/20 03:05:54;;;;;;;;;;;;;;;5.90;74.91;99395.00;5104725;28;20296;-63
2022/10/20 03:08:20;;;;;;;;;;;;;;;5.86;74.92;99399.31;5105724;28;19931;-64
2022/10/20 03:10:46;;;;;;;;;;;;;;;5.80;75.25;99406.56;5105497;28;19923;-63
2022/10/20 03:13:14;;;;;;;;;;;;;;;5.83;75.17;99410.66;5105388;28;19951;-63
2022/10/20 03:15:40;;;;;;;;;;;;;;;5.79;75.51;99420.38;5089248;28;19924;-63
2022/10/20 03:18:06;;;;;;;;;;;;;;;5.79;75.97;99418.50;5109096;28;20023;-63
2022/10/20 03:20:32;;;;;;;;;;;;;;;5.80;76.23;99422.84;5109141;28;20341;-63
2022/10/20 03:22:57;;;;;;;;;;;;;;;5.83;76.27;99426.94;5109778;28;19946;-64
2022/10/20 03:25:23;;;;;;;;;;;;;;;5.84;76.39;99420.44;5102517;28;19928;-63
2022/10/20 03:27:50;;;;;;;;;;;;;;;5.82;76.53;99417.97;5096075;28;19965;-64
2022/10/20 03:30:18;;;;;;;;;;;;;;;5.81;76.73;99427.19;5072360;28;19924;-63
2022/10/20 03:32:43;;;;;;;;;;;;;;;5.76;76.93;99429.03;5090713;28;19924;-66
2022/10/20 03:35:09;;;;;;;;;;;;;;;5.71;77.25;99432.47;5091554;28;19935;-65
2022/10/20 03:37:35;;;;;;;;;;;;;;;5.67;77.70;99428.63;5088728;28;20296;-65
2022/10/20 03:40:01;;;;;;;;;;;;;;;5.64;77.93;99438.09;5089073;28;20345;-64
2022/10/20 03:42:28;;;;;;;;;;;;;;;5.63;78.08;99435.66;5088578;28;20414;-65
2022/10/20 03:44:54;;;;;;;;;;;;;;;5.62;78.46;99451.09;5092079;28;20163;-65
2022/10/20 03:47:21;;;;;;;;;;;;;;;5.63;78.34;99460.88;5089599;28;19924;-65
2022/10/20 03:49:47;;;;;;;;;;;;;;;5.65;78.50;99457.91;5088179;28;19946;-65
2022/10/20 03:52:12;;;;;;;;;;;;;;;5.71;78.43;99462.31;5088048;28;19928;-66
2022/10/20 03:54:39;;;;;;;;;;;;;;;5.73;78.38;99459.38;5086121;28;20023;-65
2022/10/20 03:57:05;;;;;;;;;;;;;;;5.76;78.47;99451.53;5084768;28;19924;-66
2022/10/20 03:59:31;;;;;;;;;;;;;;;5.81;78.54;99453.50;5085793;28;20018;-66
2022/10/20 04:01:57;;;;;;;;;;;;;;;5.83;78.66;99454.06;5085662;28;20399;-64
2022/10/20 04:04:24;;;;;;;;;;;;;;;5.82;78.81;99458.69;5054446;28;20462;-65
2022/10/20 04:06:49;;;;;;;;;;;;;;;5.81;78.88;99476.03;5086988;28;19924;-65
2022/10/20 04:09:16;;;;;;;;;;;;;;;5.74;78.97;99475.38;5091109;28;19924;-64
2022/10/20 04:11:42;;;;;;;;;;;;;;;5.62;79.12;99475.50;5086807;28;20030;-63
2022/10/20 04:14:08;;;;;;;;;;;;;;;5.55;79.33;99477.59;5086443;28;20374;-65
2022/10/20 04:16:33;;;;;;;;;;;;;;;5.54;79.45;99481.34;5088459;28;20034;-64
2022/10/20 04:18:59;;;;;;;;;;;;;;;5.47;79.59;99484.25;5089321;28;19923;-64
2022/10/20 04:21:26;;;;;;;;;;;;;;;5.49;79.82;99490.25;5088403;28;19927;-65
2022/10/20 04:23:52;;;;;;;;;;;;;;;5.48;79.90;99494.03;5085769;28;19928;-65
2022/10/20 04:26:18;;;;;;;;;;;;;;;5.46;79.98;99492.63;5086396;28;19947;-65
2022/10/20 04:28:43;;;;;;;;;;;;;;;5.42;80.21;99492.28;5089078;28;20423;-64
2022/10/20 04:31:09;;;;;;;;;;;;;;;5.36;80.38;99491.38;5095916;28;19966;-65
2022/10/20 04:33:35;;;;;;;;;;;;;;;5.37;80.42;99501.16;5095440;28;19930;-64
2022/10/20 04:36:03;;;;;;;;;;;;;;;5.43;80.54;99502.06;5093970;28;19924;-63
2022/10/20 04:38:30;;;;;;;;;;;;;;;5.51;80.28;99511.66;5098331;28;19946;-63
2022/10/20 04:40:56;;;;;;;;;;;;;;;5.49;80.07;99511.94;5094967;28;19924;-63
2022/10/20 04:43:21;;;;;;;;;;;;;;;5.49;80.11;99514.66;5085360;28;20306;-63
2022/10/20 04:45:47;;;;;;;;;;;;;;;5.51;80.07;99520.66;5084707;28;19923;-63
2022/10/20 04:48:13;;;;;;;;;;;;;;;5.56;80.06;99527.22;5085558;28;20497;-63
2022/10/20 04:50:39;;;;;;;;;;;;;;;5.57;79.91;99526.97;5085572;28;19924;-63
2022/10/20 04:53:07;;;;;;;;;;;;;;;5.55;79.84;99531.81;4732662;28;10000354;-63
2022/10/20 04:55:35;;;;;;;;;;;;;;;5.62;79.89;99534.34;5083836;28;19928;-64
2022/10/20 04:58:01;;;;;;;;;;;;;;;5.63;79.50;99531.38;5085838;28;19924;-63
2022/10/20 05:00:26;;;;;;;;;;;;;;;5.61;79.52;99546.25;5082586;28;19930;-65
2022/10/20 05:02:53;;;;;;;;;;;;;;;5.60;79.31;99541.91;5055046;28;19931;-64
2022/10/20 05:05:19;;;;;;;;;;;;;;;5.59;79.34;99537.56;5076718;28;19931;-64
2022/10/20 05:07:44;;;;;;;;;;;;;;;5.59;79.25;99538.38;5064306;28;19924;-64
2022/10/20 05:10:10;;;;;;;;;;;;;;;5.65;79.28;99545.53;5089142;28;20046;-63
2022/10/20 05:12:39;;;;;;;;;;;;;;;5.66;79.20;99555.31;5090517;28;20029;-63
2022/10/20 05:15:05;;;;;;;;;;;;;;;5.67;78.88;99556.94;5101303;28;19923;-64
2022/10/20 05:17:30;;;;;;;;;;;;;;;5.67;78.76;99551.50;5107602;28;19923;-65
2022/10/20 05:19:56;;;;;;;;;;;;;;;5.68;78.53;99563.19;5099165;27;19927;-64
2022/10/20 05:22:22;;;;;;;;;;;;;;;5.72;78.33;99563.53;5090310;28;19924;-63
2022/10/20 05:24:48;;;;;;;;;;;;;;;5.71;78.05;99561.91;5071178;28;20022;-63
2022/10/20 05:27:14;;;;;;;;;;;;;;;5.67;78.08;99564.28;5086953;28;20360;-63
2022/10/20 05:29:41;;;;;;;;;;;;;;;5.64;78.31;99571.00;5087232;28;19923;-65
2022/10/20 05:32:07;;;;;;;;;;;;;;;5.61;78.36;99576.94;5089018;28;19923;-65
2022/10/20 05:34:32;;;;;;;;;;;;;;;5.62;78.62;99575.03;5089368;28;19985;-65
2022/10/20 05:36:58;;;;;;;;;;;;;;;5.66;78.55;99577.00;5082367;28;20311;-64
2022/10/20 05:39:24;;;;;;;;;;;;;;;5.42;78.49;99543.81;5076899;28;19924;-65
2022/10/20 05:41:50;;;;;;;;;;;;;;;5.71;78.59;99580.88;5079721;28;20399;-64
2022/10/20 05:44:15;;;;;;;;;;;;;;;5.74;78.58;99592.03;5063027;28;19924;-65
2022/10/20 05:46:42;;;;;;;;;;;;;;;5.78;78.51;99593.22;5082733;28;19955;-65
2022/10/20 05:49:11;;;;;;;;;;;;;;;5.80;78.25;99588.34;5089001;28;19955;-65
2022/10/20 05:51:36;;;;;;;;;;;;;;;5.76;77.49;99594.53;5080955;28;19934;-65
2022/10/20 05:54:02;;;;;;;;;;;;;;;5.72;77.61;99596.91;5087500;28;20311;-66
2022/10/20 05:56:29;;;;;;;;;;;;;;;5.74;77.62;99608.31;5087366;28;19924;-65
2022/10/20 05:58:55;;;;;;;;;;;;;;;5.80;77.34;99610.06;5089401;28;19924;-65
2022/10/20 06:01:23;;;;;;;;;;;;;;;5.85;77.02;99603.88;5098607;28;20341;-65
2022/10/20 06:03:51;;;;;;;;;;;;;;;5.87;76.17;99609.91;5103230;28;19981;-64
2022/10/20 06:06:17;;;;;;;;;;;;;;;5.83;75.36;99608.72;5075945;28;20006;-65
2022/10/20 06:08:43;;;;;;;;;;;;;;;5.86;74.80;99618.28;5086661;28;20423;-65
2022/10/20 06:11:09;;;;;;;;;;;;;;;5.86;74.15;99613.69;5063134;28;19931;-65
2022/10/20 06:13:35;;;;;;;;;;;;;;;5.94;73.76;99617.88;5083934;28;19923;-65
2022/10/20 06:16:01;;;;;;;;;;;;;;;5.93;72.21;99611.59;5088565;28;20191;-65
2022/10/20 06:18:27;;;;;;;;;;;;;;;5.93;71.15;99618.91;5088607;28;19928;-64
2022/10/20 06:20:58;;;;;;;;;;;;;;;5.89;70.54;99623.19;5089816;28;19928;-65
2022/10/20 06:23:24;;;;;;;;;;;;;;;5.94;70.83;99626.81;5071917;28;19954;-65
2022/10/20 06:25:50;;;;;;;;;;;;;;;6.02;70.62;99633.75;5088193;28;19952;-65
2022/10/20 06:28:16;;;;;;;;;;;;;;;6.01;69.82;99629.38;5088457;28;19924;-65
2022/10/20 06:30:41;;;;;;;;;;;;;;;6.01;69.41;99633.94;5087535;28;19930;-65
2022/10/20 06:33:11;;;;;;;;;;;;;;;6.07;68.50;99635.72;5084088;28;19923;-65
2022/10/20 06:35:36;;;;;;;;;;;;;;;6.14;68.03;99630.91;5089287;28;20027;-65
2022/10/20 06:38:03;;;;;;;;;;;;;;;6.16;67.32;99641.53;5089295;28;20026;-65
2022/10/20 06:40:29;;;;;;;;;;;;;;;6.21;67.59;99638.91;5087097;28;19924;-65
2022/10/20 06:42:55;;;;;;;;;;;;;;;6.34;67.28;99635.03;5087818;28;19931;-65
2022/10/20 06:45:21;;;;;;;;;;;;;;;6.44;66.91;99643.28;5069729;28;19992;-65
2022/10/20 06:47:46;;;;;;;;;;;;;;;6.57;67.00;99644.00;5088103;28;20326;-65
2022/10/20 06:50:12;;;;;;;;;;;;;;;6.73;66.61;99636.88;5085748;28;19984;-64
2022/10/20 06:52:38;;;;;;;;;;;;;;;6.82;66.25;99635.34;5088670;28;19962;-65
2022/10/20 06:55:05;;;;;;;;;;;;;;;6.85;65.70;99623.94;5088788;28;20412;-63
2022/10/20 06:57:31;;;;;;;;;;;;;;;6.89;65.38;99637.84;5085805;28;19973;-63
2022/10/20 06:59:57;;;;;;;;;;;;;;;6.87;65.08;99629.97;5092476;28;19927;-65
2022/10/20 07:02:22;;;;;;;;;;;;;;;6.90;64.26;99637.63;5099744;28;19927;-65
2022/10/20 07:04:48;;;;;;;;;;;;;;;6.83;62.87;99644.31;5094941;28;19955;-66
2022/10/20 07:07:14;;;;;;;;;;;;;;;6.86;63.04;99646.53;5100380;28;20384;-65
2022/10/20 07:09:40;;;;;;;;;;;;;;;7.02;62.42;99642.91;5103411;28;19931;-65
2022/10/20 07:12:07;;;;;;;;;;;;;;;7.18;62.05;99641.19;5105844;28;20264;-65
2022/10/20 07:14:36;;;;;;;;;;;;;;;7.29;61.83;99641.28;5107932;28;19930;-65
2022/10/20 07:17:02;;;;;;;;;;;;;;;7.42;61.48;99648.22;5073431;28;20018;-66
2022/10/20 07:19:27;;;;;;;;;;;;;;;7.56;61.02;99646.69;5108929;28;19963;-66
2022/10/20 07:21:53;;;;;;;;;;;;;;;7.53;60.46;99652.66;5106960;28;19938;-65
2022/10/20 07:24:19;;;;;;;;;;;;;;;7.38;59.65;99658.78;5105315;28;19923;-65
2022/10/20 07:26:44;;;;;;;;;;;;;;;6.91;59.69;99665.59;5105156;28;19930;-66
2022/10/20 07:29:13;;;;;;;;;;;;;;;6.67;60.49;99663.97;5108504;28;19923;-65
2022/10/20 07:31:40;;;;;;;;;;;;;;;7.00;60.02;99672.25;5107821;28;19923;-63
2022/10/20 07:34:07;;;;;;;;;;;;;;;7.48;58.87;99666.22;5107344;28;20390;-65
2022/10/20 07:36:33;;;;;;;;;;;;;;;7.93;57.27;99656.81;5106610;28;20045;-66
2022/10/20 07:39:00;;;;;;;;;;;;;;;8.54;55.36;99662.94;5108427;28;19923;-65
2022/10/20 07:41:26;;;;;;;;;;;;;;;9.18;53.67;99662.91;5108071;28;19924;-65
2022/10/20 07:43:52;;;;;;;;;;;;;;;9.95;51.84;99670.34;5106207;28;19924;-65
2022/10/20 07:46:19;;;;;;;;;;;;;;;10.61;50.49;99667.81;5107599;28;20927;-65
2022/10/20 07:48:45;;;;;;;;;;;;;;;11.15;48.90;99666.22;5107217;28;19923;-65
2022/10/20 07:51:27;;;;;;;;;;;;;;;11.51;48.06;99657.00;5108378;28;19969;-67
2022/10/20 07:53:54;;;;;;;;;;;;;;;11.90;46.38;99658.84;5106029;28;19923;-65
2022/10/20 07:56:19;;;;;;;;;;;;;;;12.12;46.18;99665.00;5106139;28;19923;-65
2022/10/20 07:58:46;;;;;;;;;;;;;;;12.65;44.77;99655.97;5107719;28;19930;-65
2022/10/20 08:01:11;;;;;;;;;;;;;;;13.16;43.05;99646.25;5108544;28;19930;-65
2022/10/20 08:03:39;;;;;;;;;;;;;;;13.18;40.75;99649.53;5107300;28;19923;-65
2022/10/20 08:06:05;;;;;;;;;;;;;;;12.91;40.49;99658.41;5111827;28;19976;-65
2022/10/20 08:08:31;;;;;;;;;;;;;;;11.77;42.08;99671.31;5111367;28;19923;-65
2022/10/20 08:10:57;;;;;;;;;;;;;;;11.52;42.58;99666.84;5111110;28;20349;-65
2022/10/20 08:13:22;;;;;;;;;;;;;;;10.74;44.59;99683.66;5110161;28;20030;-65
2022/10/20 08:15:48;;;;;;;;;;;;;;;9.96;46.32;99680.19;5092864;28;19923;-65
2022/10/20 08:18:14;;;;;;;;;;;;;;;9.41;47.69;99679.88;5108818;28;20392;-64
2022/10/20 08:20:41;;;;;;;;;;;;;;;9.26;48.75;99681.47;5109757;27;19976;-65
2022/10/20 08:23:07;;;;;;;;;;;;;;;9.30;48.52;99685.31;5113066;28;20413;-65
2022/10/20 08:25:33;;;;;;;;;;;;;;;9.22;48.75;99683.09;5110464;28;19928;-65
2022/10/20 08:27:59;;;;;;;;;;;;;;;9.04;49.13;99674.34;5110384;28;19923;-65
2022/10/20 08:30:24;;;;;;;;;;;;;;;8.79;49.69;99685.97;5111314;28;19924;-64
2022/10/20 08:32:51;;;;;;;;;;;;;;;8.59;50.30;99678.50;5094032;28;19924;-65
2022/10/20 08:35:17;;;;;;;;;;;;;;;8.67;50.04;99688.91;5111510;28;19946;-65
2022/10/20 08:37:44;;;;;;;;;;;;;;;8.83;49.69;99681.59;5108527;28;20509;-65
2022/10/20 08:40:15;;;;;;;;;;;;;;;8.69;49.78;99689.47;5109594;28;19927;-65
2022/10/20 08:42:43;;;;;;;;;;;;;;;8.46;50.46;99698.84;5111011;28;19930;-64
2022/10/20 08:45:13;;;;;;;;;;;;;;;8.09;51.04;99695.84;5110540;28;19924;-64
2022/10/20 08:47:38;;;;;;;;;;;;;;;7.80;51.70;99701.63;5092583;28;19923;-63
2022/10/20 08:50:08;;;;;;;;;;;;;;;7.63;52.07;99706.34;5110240;28;19977;-64
2022/10/20 08:52:34;;;;;;;;;;;;;;;7.45;52.63;99710.25;5108777;28;19980;-64
2022/10/20 08:55:03;;;;;;;;;;;;;;;7.35;53.12;99703.63;5110804;28;19930;-64
2022/10/20 08:57:30;;;;;;;;;;;;;;;7.18;53.49;99708.34;5110387;28;19931;-64
2022/10/20 08:59:58;;;;;;;;;;;;;;;7.04;54.03;99716.06;5110193;28;19924;-64
2022/10/20 09:02:25;;;;;;;;;;;;;;;6.99;54.19;99713.25;5112034;28;19930;-64
2022/10/20 09:04:52;;;;;;;;;;;;;;;6.91;54.00;99709.94;5109444;28;20018;-64
2022/10/20 09:07:21;;;;;;;;;;;;;;;6.91;53.97;99711.81;5110290;28;19924;-64
2022/10/20 09:09:47;;;;;;;;;;;;;;;6.88;53.64;99717.75;5112587;28;20391;-65
2022/10/20 09:12:16;;;;;;;;;;;;;;;6.88;53.61;99721.31;5111867;28;19931;-64
2022/10/20 09:14:42;;;;;;;;;;;;;;;6.92;53.67;99721.59;5109693;28;20360;-65
2022/10/20 09:17:13;;;;;;;;;;;;;;;6.98;53.27;99726.06;5108607;28;19923;-64
2022/10/20 09:19:41;;;;;;;;;;;;;;;7.00;52.42;99726.63;5109637;28;19933;-65
2022/10/20 09:22:07;;;;;;;;;;;;;;;7.07;51.70;99732.69;5108484;28;19977;-64
2022/10/20 09:24:34;;;;;;;;;;;;;;;7.08;51.42;99726.16;5108687;28;19923;-65
2022/10/20 09:29:52;;;;;;;;;;;;;;;7.43;50.90;99720.59;5160248;27;20403;-64
2022/10/20 09:32:20;;;;;;;;;;;;;;;7.42;50.82;99718.94;5124855;27;19988;-66
2022/10/20 09:34:46;;;;;;;;;;;;;;;7.35;50.77;99730.81;5127800;27;20318;-65
2022/10/20 09:37:12;;;;;;;;;;;;;;;7.33;51.10;99718.56;5124883;28;20150;-65
2022/10/20 09:39:40;;;;;;;;;;;;;;;7.28;51.31;99730.22;5128954;28;19928;-64
2022/10/20 09:42:11;;;;;;;;;;;;;;;7.25;51.77;99730.69;5124129;28;20033;-65
2022/10/20 09:44:44;;;;;;;;;;;;;;;7.21;52.02;99724.97;5127698;27;20399;-64
2022/10/20 09:47:13;;;;;;;;;;;;;;;7.19;52.24;99727.13;5128009;27;19979;-64
2022/10/20 09:49:40;;;;;;;;;;;;;;;7.11;52.78;99730.28;5128352;28;19980;-64
2022/10/20 09:52:15;;;;;;;;;;;;;;;7.07;53.17;99724.53;5126385;28;20462;-64
2022/10/20 09:54:44;;;;;;;;;;;;;;;7.08;53.25;99733.50;5107380;28;20294;-64
2022/10/20 09:57:15;;;;;;;;;;;;;;;7.07;53.47;99734.59;5126024;28;20022;-64
2022/10/20 09:59:43;;;;;;;;;;;;;;;7.03;53.57;99730.75;5124994;27;19967;-64
2022/10/20 10:02:24;;;;;;;;;;;;;;;6.97;53.92;99740.72;5127127;27;19934;-64
2022/10/20 10:04:52;;;;;;;;;;;;;;;6.89;53.95;99739.25;5126465;27;19927;-64
2022/10/20 10:07:27;;;;;;;;;;;;;;;6.82;54.56;99735.88;5127437;28;19928;-64
2022/10/20 10:09:55;;;;;;;;;;;;;;;6.78;54.80;99738.28;5127768;28;19983;-64
2022/10/20 10:12:22;;;;;;;;;;;;;;;6.75;55.25;99740.69;5128055;27;19935;-64
2022/10/20 10:14:50;;;;;;;;;;;;;;;6.77;55.64;99735.84;5125289;28;19927;-65
2022/10/20 10:17:27;;;;;;;;;;;;;;;6.73;55.74;99738.22;5127546;28;19931;-64
2022/10/20 10:19:54;;;;;;;;;;;;;;;6.70;56.08;99737.88;5125858;28;19935;-64
2022/10/20 10:22:20;;;;;;;;;;;;;;;6.66;56.19;99732.97;5127927;28;20026;-65
2022/10/20 10:24:47;;;;;;;;;;;;;;;6.65;56.50;99738.66;5126912;27;20740;-64
2022/10/20 10:27:20;;;;;;;;;;;;;;;6.65;56.70;99734.03;5126372;28;19928;-64
2022/10/20 10:29:47;;;;;;;;;;;;;;;6.69;56.74;99744.41;5125407;28;20417;-64
2022/10/20 10:32:14;;;;;;;;;;;;;;;6.71;56.74;99742.25;5126300;28;20049;-64
2022/10/20 10:34:43;;;;;;;;;;;;;;;6.75;56.70;99741.50;5124765;28;19935;-64
2022/10/20 10:37:12;;;;;;;;;;;;;;;6.79;56.40;99730.97;5127510;28;20280;-64
2022/10/20 10:39:38;;;;;;;;;;;;;;;6.83;55.77;99742.97;5122249;28;20046;-64
2022/10/20 10:42:30;;;;;;;;;;;;;;;6.86;55.15;99737.03;5111766;28;20055;-64
2022/10/20 10:45:02;;;;;;;;;;;;;;;6.91;54.56;99739.84;5108259;28;19927;-64
2022/10/20 10:47:35;;;;;;;;;;;;;;;6.93;54.40;99736.84;5110627;28;20398;-65
2022/10/20 10:50:14;;;;;;;;;;;;;;;6.94;54.42;99733.03;5075274;28;19942;-65
2022/10/20 10:52:48;;;;;;;;;;;;;;;6.97;54.42;99738.00;5110924;28;19928;-64
2022/10/20 10:55:16;;;;;;;;;;;;;;;6.93;54.25;99739.56;5108302;28;19928;-64
2022/10/20 10:57:49;;;;;;;;;;;;;;;6.88;54.63;99736.78;5111560;28;19934;-64
2022/10/20 11:00:19;;;;;;;;;;;;;;;6.84;54.45;99736.47;5110077;28;19932;-64
2022/10/20 11:02:58;;;;;;;;;;;;;;;6.77;54.40;99744.78;5110988;28;19932;-64
2022/10/20 11:05:27;;;;;;;;;;;;;;;6.71;54.54;99734.09;5107890;28;19935;-64
2022/10/20 11:08:03;;;;;;;;;;;;;;;6.67;54.42;99745.47;5109064;28;19928;-64
2022/10/20 11:10:34;;;;;;;;;;;;;;;6.68;54.42;99738.16;5109324;28;19949;-64
2022/10/20 11:13:14;;;;;;;;;;;;;;;6.74;54.03;99744.50;5111606;28;20355;-65
2022/10/20 11:15:57;;;;;;;;;;;;;;;6.83;53.60;99744.88;5107532;28;20360;-64
2022/10/20 11:18:35;;;;;;;;;;;;;;;6.91;53.22;99741.72;5110166;28;20398;-64
2022/10/20 11:21:07;;;;;;;;;;;;;;;6.93;53.12;99750.44;5092543;28;20462;-64
2022/10/20 11:23:49;;;;;;;;;;;;;;;6.91;52.58;99742.53;5109545;28;19928;-64
2022/10/20 11:26:21;;;;;;;;;;;;;;;6.94;52.81;99747.47;5108884;28;19927;-64
2022/10/20 11:28:49;;;;;;;;;;;;;;;6.90;52.77;99740.91;5109278;28;19928;-64
2022/10/20 11:31:19;;;;;;;;;;;;;;;6.86;52.83;99749.81;5112682;28;19977;-64
2022/10/20 11:33:48;;;;;;;;;;;;;;;6.85;52.89;99748.97;5108334;28;19927;-64
2022/10/20 11:36:15;;;;;;;;;;;;;;;6.81;53.29;99750.56;5109397;28;19928;-64
2022/10/20 11:38:45;;;;;;;;;;;;;;;6.77;53.53;99761.09;5109805;28;19953;-64
2022/10/20 11:41:15;;;;;;;;;;;;;;;6.74;54.11;99758.88;5109871;28;19973;-64
2022/10/20 11:43:45;;;;;;;;;;;;;;;6.74;54.65;99749.94;5110825;28;20038;-64
2022/10/20 11:46:12;;;;;;;;;;;;;;;6.69;55.38;99750.66;5112155;28;20080;-64
2022/10/20 11:48:40;;;;;;;;;;;;;;;6.67;55.40;99755.53;5109053;28;20402;-64
2022/10/20 11:51:17;;;;;;;;;;;;;;;6.67;55.27;99750.09;5111548;28;19935;-64
2022/10/20 11:53:59;;;;;;;;;;;;;;;6.78;55.09;99759.22;5107952;28;19973;-64
2022/10/20 11:56:34;;;;;;;;;;;;;;;6.89;54.70;99760.19;5109145;28;19932;-64
2022/10/20 11:59:20;;;;;;;;;;;;;;;6.98;54.05;99755.13;5108896;28;20373;-64
2022/10/20 12:02:00;;;;;;;;;;;;;;;6.93;53.43;99756.72;5105934;28;19931;-64
2022/10/20 12:04:43;;;;;;;;;;;;;;;6.85;53.78;99748.97;5107388;28;20374;-64
2022/10/20 12:07:29;;;;;;;;;;;;;;;6.86;53.97;99757.97;5099938;28;19934;-64
2022/10/20 12:10:01;;;;;;;;;;;;;;;6.80;54.09;99757.06;5108747;28;19954;-64
2022/10/20 12:12:31;;;;;;;;;;;;;;;6.78;54.44;99768.19;5110146;28;19932;-65
2022/10/20 12:14:58;;;;;;;;;;;;;;;6.77;54.70;99760.28;5091104;28;19935;-64
2022/10/20 12:17:28;;;;;;;;;;;;;;;6.75;55.04;99762.44;5090234;28;20394;-64
2022/10/20 12:20:08;;;;;;;;;;;;;;;6.69;55.54;99766.13;5109984;28;19927;-65
2022/10/20 12:22:41;;;;;;;;;;;;;;;6.61;56.13;99768.22;5110412;28;19928;-64
2022/10/20 12:25:25;;;;;;;;;;;;;;;6.57;56.61;99772.53;5108004;28;19927;-65
2022/10/20 12:28:05;;;;;;;;;;;;;;;6.54;56.93;99773.00;5109763;28;20383;-65
2022/10/20 12:30:42;;;;;;;;;;;;;;;6.50;56.93;99778.13;5108526;28;20492;-65
2022/10/20 12:33:14;;;;;;;;;;;;;;;6.49;56.79;99781.06;5109074;28;20367;-65
2022/10/20 12:35:55;;;;;;;;;;;;;;;6.47;56.67;99775.06;5109303;28;19932;-64
2022/10/20 12:38:21;;;;;;;;;;;;;;;6.45;56.59;99775.31;5110068;28;19928;-64
2022/10/20 12:40:49;;;;;;;;;;;;;;;6.47;56.59;99777.78;5109018;28;19993;-65
2022/10/20 12:43:25;;;;;;;;;;;;;;;6.47;56.28;99778.59;5111087;28;20034;-65
2022/10/20 12:45:56;;;;;;;;;;;;;;;6.46;55.96;99776.16;5108803;28;19935;-64
2022/10/20 12:48:23;;;;;;;;;;;;;;;6.44;56.04;99772.84;5107105;28;20307;-64
2022/10/20 12:50:49;;;;;;;;;;;;;;;6.46;55.89;99776.94;5109503;28;19934;-65
2022/10/20 12:53:20;;;;;;;;;;;;;;;6.48;55.86;99777.56;5109143;28;20058;-64
2022/10/20 12:55:52;;;;;;;;;;;;;;;6.48;55.84;99788.41;5110888;28;19928;-64
2022/10/20 12:58:29;;;;;;;;;;;;;;;6.53;55.90;99787.66;5109744;28;20326;-63
2022/10/20 13:01:07;;;;;;;;;;;;;;;7.24;54.66;99797.88;5109145;28;19934;-64
2022/10/20 13:03:45;;;;;;;;;;;;;;;7.48;53.44;99788.66;5110912;28;19927;-64
2022/10/20 13:06:32;;;;;;;;;;;;;;;7.31;53.24;99791.44;5111272;28;19928;-64